sensor_id;sensor_type;location;lat;lon;timestamp;pressure;altitude;pressure_sealevel;temperature;humidity
19795;BME280;10057;59.402;17.866;2023-12-22T00:01:26;96598.59;;;1.40;92.08
19795;BME280;10057;59.402;17.866;2023-12-22T00:03:52;96594.22;;;1.41;92.20
19795;BME280;10057;59.402;17.866;2023-12-22T00:06:19;96591.69;;;1.39;92.05
19795;BME280;10057;59.402;17.866;2023-12-22T00:08:46;96583.78;;;1.41;92.21
19795;BME280;10057;59.402;17.866;2023-12-22T00:11:13;96592.53;;;1.40;92.11
19795;BME280;10057;59.402;17.866;2023-12-22T00:13:39;96600.34;;;1.40;92.23
19795;BME280;10057;59.402;17.866;2023-12-22T00:16:06;96594.31;;;1.39;92.19
19795;BME280;10057;59.402;17.866;2023-12-22T00:18:32;96605.69;;;1.38;92.13
19795;BME280;10057;59.402;17.866;2023-12-22T00:20:59;96590.13;;;1.37;92.23
19795;BME280;10057;59.402;17.866;2023-12-22T00:23:26;96595.44;;;1.35;92.01
19795;BME280;10057;59.402;17.866;2023-12-22T00:25:52;96596.28;;;1.36;91.89
19795;BME280;10057;59.402;17.866;2023-12-22T00:28:19;96591.06;;;1.36;92.25
19795;BME280;10057;59.402;17.866;2023-12-22T00:30:46;96596.28;;;1.36;92.03
19795;BME280;10057;59.402;17.866;2023-12-22T00:33:13;96589.38;;;1.35;91.84
19795;BME280;10057;59.402;17.866;2023-12-22T00:35:39;96594.63;;;1.35;92.05
19795;BME280;10057;59.402;17.866;2023-12-22T00:38:06;96599.91;;;1.33;92.19
19795;BME280;10057;59.402;17.866;2023-12-22T00:40:33;96610.69;;;1.29;92.04
19795;BME280;10057;59.402;17.866;2023-12-22T00:43:00;96611.63;;;1.28;92.17
19795;BME280;10057;59.402;17.866;2023-12-22T00:45:26;96600.16;;;1.30;92.43
19795;BME280;10057;59.402;17.866;2023-12-22T00:47:53;96603.59;;;1.31;92.15
19795;BME280;10057;59.402;17.866;2023-12-22T00:50:19;96597.00;;;1.25;92.00
19795;BME280;10057;59.402;17.866;2023-12-22T00:52:46;96594.38;;;1.25;91.70
19795;BME280;10057;59.402;17.866;2023-12-22T00:55:13;96607.75;;;1.21;91.88
19795;BME280;10057;59.402;17.866;2023-12-22T00:57:39;96606.91;;;1.20;91.74
19795;BME280;10057;59.402;17.866;2023-12-22T01:00:06;96609.72;;;1.17;91.92
19795;BME280;10057;59.402;17.866;2023-12-22T01:02:38;96610.00;;;1.12;91.67
19795;BME280;10057;59.402;17.866;2023-12-22T01:05:05;96611.03;;;1.10;91.50
19795;BME280;10057;59.402;17.866;2023-12-22T01:07:32;96601.63;;;1.07;91.82
19795;BME280;10057;59.402;17.866;2023-12-22T01:09:58;96602.66;;;1.05;91.77
19795;BME280;10057;59.402;17.866;2023-12-22T01:12:30;96608.81;;;1.04;92.05
19795;BME280;10057;59.402;17.866;2023-12-22T01:14:57;96594.94;;;1.03;91.79
19795;BME280;10057;59.402;17.866;2023-12-22T01:17:24;96601.94;;;1.03;91.64
19795;BME280;10057;59.402;17.866;2023-12-22T01:19:51;96606.22;;;1.04;91.72
19795;BME280;10057;59.402;17.866;2023-12-22T01:22:18;96608.06;;;1.02;91.98
19795;BME280;10057;59.402;17.866;2023-12-22T01:24:44;96607.34;;;1.00;92.18
19795;BME280;10057;59.402;17.866;2023-12-22T01:27:12;96612.47;;;1.01;91.97
19795;BME280;10057;59.402;17.866;2023-12-22T01:29:38;96607.03;;;1.04;91.94
19795;BME280;10057;59.402;17.866;2023-12-22T01:32:05;96606.22;;;1.04;91.84
19795;BME280;10057;59.402;17.866;2023-12-22T01:34:32;96607.88;;;1.05;92.05
19795;BME280;10057;59.402;17.866;2023-12-22T01:36:59;96614.88;;;1.04;92.29
19795;BME280;10057;59.402;17.866;2023-12-22T01:39:25;96602.66;;;1.05;91.75
19795;BME280;10057;59.402;17.866;2023-12-22T01:41:52;96606.22;;;1.04;91.88
19795;BME280;10057;59.402;17.866;2023-12-22T01:44:18;96605.28;;;1.05;92.16
19795;BME280;10057;59.402;17.866;2023-12-22T01:46:45;96612.25;;;1.04;92.10
19795;BME280;10057;59.402;17.866;2023-12-22T01:49:13;96616.66;;;1.04;92.15
19795;BME280;10057;59.402;17.866;2023-12-22T01:51:41;96613.22;;;1.03;92.18
19795;BME280;10057;59.402;17.866;2023-12-22T01:54:09;96615.00;;;1.03;91.94
19795;BME280;10057;59.402;17.866;2023-12-22T01:56:37;96608.06;;;1.02;91.91
19795;BME280;10057;59.402;17.866;2023-12-22T01:59:04;96604.56;;;1.03;92.14
19795;BME280;10057;59.402;17.866;2023-12-22T02:01:31;96617.69;;;1.01;91.88
19795;BME280;10057;59.402;17.866;2023-12-22T02:03:58;96605.78;;;0.97;92.31
19795;BME280;10057;59.402;17.866;2023-12-22T02:06:25;96617.03;;;0.98;92.26
19795;BME280;10057;59.402;17.866;2023-12-22T02:08:53;96606.78;;;0.94;92.01
19795;BME280;10057;59.402;17.866;2023-12-22T02:11:20;96617.03;;;0.98;92.12
19795;BME280;10057;59.402;17.866;2023-12-22T02:13:47;96610.34;;;0.93;92.23
19795;BME280;10057;59.402;17.866;2023-12-22T02:16:37;96624.22;;;0.94;92.14
19795;BME280;10057;59.402;17.866;2023-12-22T02:19:21;96621.72;;;0.92;92.05
19795;BME280;10057;59.402;17.866;2023-12-22T02:22:02;96629.75;;;0.89;91.99
19795;BME280;10057;59.402;17.866;2023-12-22T02:24:34;96627.13;;;0.89;92.24
19795;BME280;10057;59.402;17.866;2023-12-22T02:30:00;96630.03;;;0.85;92.18
19795;BME280;10057;59.402;17.866;2023-12-22T02:32:32;96635.16;;;0.86;92.41
19795;BME280;10057;59.402;17.866;2023-12-22T02:35:03;96622.00;;;0.88;92.45
19795;BME280;10057;59.402;17.866;2023-12-22T02:37:32;96615.00;;;0.88;92.39
19795;BME280;10057;59.402;17.866;2023-12-22T02:40:01;96620.97;;;0.90;92.25
19795;BME280;10057;59.402;17.866;2023-12-22T02:42:29;96618.25;;;0.92;92.22
19795;BME280;10057;59.402;17.866;2023-12-22T02:44:57;96626.84;;;0.94;92.72
19795;BME280;10057;59.402;17.866;2023-12-22T02:47:25;96638.09;;;0.94;92.46
19795;BME280;10057;59.402;17.866;2023-12-22T02:49:54;96633.72;;;0.95;92.45
19795;BME280;10057;59.402;17.866;2023-12-22T02:52:21;96626.84;;;0.94;92.38
19795;BME280;10057;59.402;17.866;2023-12-22T02:54:47;96622.56;;;0.93;92.04
19795;BME280;10057;59.402;17.866;2023-12-22T02:57:14;96623.59;;;0.90;92.43
19795;BME280;10057;59.402;17.866;2023-12-22T02:59:41;96633.06;;;0.91;92.18
19795;BME280;10057;59.402;17.866;2023-12-22T03:02:08;96630.59;;;0.90;92.34
19795;BME280;10057;59.402;17.866;2023-12-22T03:04:34;96626.19;;;0.90;92.40
19795;BME280;10057;59.402;17.866;2023-12-22T03:07:01;96628.25;;;0.85;92.19
19795;BME280;10057;59.402;17.866;2023-12-22T03:09:28;96625.75;;;0.84;92.32
19795;BME280;10057;59.402;17.866;2023-12-22T03:11:55;96624.63;;;0.88;91.96
19795;BME280;10057;59.402;17.866;2023-12-22T03:14:23;96635.16;;;0.86;92.20
19795;BME280;10057;59.402;17.866;2023-12-22T03:16:50;96626.38;;;0.87;92.45
19795;BME280;10057;59.402;17.866;2023-12-22T03:19:16;96624.63;;;0.88;92.25
19795;BME280;10057;59.402;17.866;2023-12-22T03:21:43;96624.63;;;0.88;92.12
19795;BME280;10057;59.402;17.866;2023-12-22T03:24:10;96627.22;;;0.88;92.57
19795;BME280;10057;59.402;17.866;2023-12-22T03:26:36;96616.91;;;0.86;92.43
19795;BME280;10057;59.402;17.866;2023-12-22T03:29:03;96613.53;;;0.84;91.95
19795;BME280;10057;59.402;17.866;2023-12-22T03:31:30;96626.56;;;0.84;91.98
19795;BME280;10057;59.402;17.866;2023-12-22T03:33:56;96635.34;;;0.83;92.37
19795;BME280;10057;59.402;17.866;2023-12-22T03:36:23;96618.03;;;0.82;92.25
19795;BME280;10057;59.402;17.866;2023-12-22T03:38:50;96624.28;;;0.80;92.34
19795;BME280;10057;59.402;17.866;2023-12-22T03:41:16;96621.75;;;0.78;92.29
19795;BME280;10057;59.402;17.866;2023-12-22T03:43:43;96621.66;;;0.80;92.14
19795;BME280;10057;59.402;17.866;2023-12-22T03:46:09;96625.09;;;0.80;92.44
19795;BME280;10057;59.402;17.866;2023-12-22T03:48:36;96631.16;;;0.81;92.49
19795;BME280;10057;59.402;17.866;2023-12-22T03:51:03;96640.75;;;0.80;92.19
19795;BME280;10057;59.402;17.866;2023-12-22T03:53:30;96629.38;;;0.81;92.13
19795;BME280;10057;59.402;17.866;2023-12-22T03:55:56;96647.81;;;0.78;92.67
19795;BME280;10057;59.402;17.866;2023-12-22T03:58:23;96634.72;;;0.80;92.20
19795;BME280;10057;59.402;17.866;2023-12-22T04:00:50;96642.59;;;0.78;92.22
19795;BME280;10057;59.402;17.866;2023-12-22T04:03:17;96633.94;;;0.78;92.52
19795;BME280;10057;59.402;17.866;2023-12-22T04:05:44;96635.84;;;0.76;92.50
19795;BME280;10057;59.402;17.866;2023-12-22T04:08:11;96648.00;;;0.75;92.38
19795;BME280;10057;59.402;17.866;2023-12-22T04:10:37;96647.19;;;0.75;92.44
19795;BME280;10057;59.402;17.866;2023-12-22T04:13:04;96651.56;;;0.74;92.24
19795;BME280;10057;59.402;17.866;2023-12-22T04:15:31;96644.69;;;0.73;92.51
19795;BME280;10057;59.402;17.866;2023-12-22T04:17:57;96656.78;;;0.74;92.39
19795;BME280;10057;59.402;17.866;2023-12-22T04:20:24;96649.78;;;0.75;92.49
19795;BME280;10057;59.402;17.866;2023-12-22T04:22:51;96658.44;;;0.75;92.70
19795;BME280;10057;59.402;17.866;2023-12-22T04:25:17;96650.84;;;0.72;92.46
19795;BME280;10057;59.402;17.866;2023-12-22T04:27:44;96668.88;;;0.75;92.24
19795;BME280;10057;59.402;17.866;2023-12-22T04:30:12;96661.16;;;0.74;92.45
19795;BME280;10057;59.402;17.866;2023-12-22T04:32:38;96655.84;;;0.89;92.34
19795;BME280;10057;59.402;17.866;2023-12-22T04:35:05;96663.63;;;1.04;91.69
19795;BME280;10057;59.402;17.866;2023-12-22T04:37:32;96655.69;;;1.05;91.47
19795;BME280;10057;59.402;17.866;2023-12-22T04:39:59;96674.91;;;1.04;91.72
19795;BME280;10057;59.402;17.866;2023-12-22T04:42:26;96655.25;;;0.99;91.67
19795;BME280;10057;59.402;17.866;2023-12-22T04:44:53;96650.44;;;0.92;91.86
19795;BME280;10057;59.402;17.866;2023-12-22T04:47:20;96655.84;;;0.89;91.95
19795;BME280;10057;59.402;17.866;2023-12-22T04:49:47;96670.75;;;0.87;92.14
19795;BME280;10057;59.402;17.866;2023-12-22T04:52:13;96653.41;;;0.86;92.23
19795;BME280;10057;59.402;17.866;2023-12-22T04:54:40;96669.25;;;0.83;92.32
19795;BME280;10057;59.402;17.866;2023-12-22T04:57:07;96680.63;;;0.82;92.50
19795;BME280;10057;59.402;17.866;2023-12-22T04:59:33;96673.72;;;0.81;92.27
19795;BME280;10057;59.402;17.866;2023-12-22T05:02:00;96683.31;;;0.81;92.15
19795;BME280;10057;59.402;17.866;2023-12-22T05:04:27;96682.59;;;0.79;92.09
19795;BME280;10057;59.402;17.866;2023-12-22T05:06:54;96677.47;;;0.77;92.29
19795;BME280;10057;59.402;17.866;2023-12-22T05:09:20;96681.84;;;0.77;92.62
19795;BME280;10057;59.402;17.866;2023-12-22T05:11:47;96686.31;;;0.75;92.50
19795;BME280;10057;59.402;17.866;2023-12-22T05:14:14;96694.06;;;0.76;92.69
19795;BME280;10057;59.402;17.866;2023-12-22T05:16:40;96688.00;;;0.76;92.42
19795;BME280;10057;59.402;17.866;2023-12-22T05:19:07;96689.75;;;0.75;92.63
19795;BME280;10057;59.402;17.866;2023-12-22T05:21:34;96692.47;;;0.74;92.39
19795;BME280;10057;59.402;17.866;2023-12-22T05:24:00;96681.28;;;0.71;92.67
19795;BME280;10057;59.402;17.866;2023-12-22T05:26:27;96702.06;;;0.73;92.64
19795;BME280;10057;59.402;17.866;2023-12-22T05:28:56;96689.97;;;0.72;92.64
19795;BME280;10057;59.402;17.866;2023-12-22T05:31:23;96689.97;;;0.72;92.76
19795;BME280;10057;59.402;17.866;2023-12-22T05:33:50;96696.03;;;0.73;92.37
19795;BME280;10057;59.402;17.866;2023-12-22T05:36:17;96707.47;;;0.70;92.61
19795;BME280;10057;59.402;17.866;2023-12-22T05:38:43;96704.69;;;0.73;93.04
19795;BME280;10057;59.402;17.866;2023-12-22T05:41:10;96694.31;;;0.71;92.87
19795;BME280;10057;59.402;17.866;2023-12-22T05:43:37;96692.56;;;0.72;92.75
19795;BME280;10057;59.402;17.866;2023-12-22T05:46:04;96699.53;;;0.71;92.71
19795;BME280;10057;59.402;17.866;2023-12-22T05:48:30;96704.75;;;0.71;92.81
19795;BME280;10057;59.402;17.866;2023-12-22T05:50:57;96707.28;;;0.73;92.98
19795;BME280;10057;59.402;17.866;2023-12-22T05:53:24;96714.16;;;0.74;92.73
19795;BME280;10057;59.402;17.866;2023-12-22T05:55:51;96706.34;;;0.74;92.54
19795;BME280;10057;59.402;17.866;2023-12-22T05:58:17;96708.88;;;0.76;92.80
19795;BME280;10057;59.402;17.866;2023-12-22T06:00:44;96711.50;;;0.76;92.84
19795;BME280;10057;59.402;17.866;2023-12-22T06:03:11;96714.09;;;0.76;92.85
19795;BME280;10057;59.402;17.866;2023-12-22T06:05:38;96714.16;;;0.74;92.76
19795;BME280;10057;59.402;17.866;2023-12-22T06:08:05;96719.19;;;0.77;92.54
19795;BME280;10057;59.402;17.866;2023-12-22T06:10:32;96724.41;;;0.77;92.77
19795;BME280;10057;59.402;17.866;2023-12-22T06:12:59;96726.94;;;0.79;92.33
19795;BME280;10057;59.402;17.866;2023-12-22T06:15:29;96727.03;;;0.77;93.05
19795;BME280;10057;59.402;17.866;2023-12-22T06:17:56;96731.31;;;0.78;92.36
19795;BME280;10057;59.402;17.866;2023-12-22T06:20:24;96746.13;;;0.78;92.70
19795;BME280;10057;59.402;17.866;2023-12-22T06:22:52;96737.38;;;0.79;92.65
19795;BME280;10057;59.402;17.866;2023-12-22T06:25:19;96747.06;;;0.77;92.81
19795;BME280;10057;59.402;17.866;2023-12-22T06:27:46;96752.94;;;0.80;92.50
19795;BME280;10057;59.402;17.866;2023-12-22T06:30:13;96771.19;;;0.80;92.36
19795;BME280;10057;59.402;17.866;2023-12-22T06:32:40;96766.81;;;0.81;92.59
19795;BME280;10057;59.402;17.866;2023-12-22T06:35:08;96761.78;;;0.78;92.70
19795;BME280;10057;59.402;17.866;2023-12-22T06:37:39;96771.19;;;0.80;92.72
19795;BME280;10057;59.402;17.866;2023-12-22T06:40:08;96772.13;;;0.79;92.79
19795;BME280;10057;59.402;17.866;2023-12-22T06:42:34;96773.91;;;0.79;92.71
19795;BME280;10057;59.402;17.866;2023-12-22T06:45:01;96766.16;;;0.77;92.71
19795;BME280;10057;59.402;17.866;2023-12-22T06:47:28;96765.97;;;0.80;92.78
19795;BME280;10057;59.402;17.866;2023-12-22T06:49:55;96780.88;;;0.78;92.82
19795;BME280;10057;59.402;17.866;2023-12-22T06:52:22;96761.59;;;0.81;92.70
19795;BME280;10057;59.402;17.866;2023-12-22T06:54:48;96773.69;;;0.82;92.81
19795;BME280;10057;59.402;17.866;2023-12-22T06:57:15;96776.31;;;0.82;93.02
19795;BME280;10057;59.402;17.866;2023-12-22T06:59:44;96772.88;;;0.81;92.74
19795;BME280;10057;59.402;17.866;2023-12-22T07:02:12;96777.25;;;0.81;92.80
19795;BME280;10057;59.402;17.866;2023-12-22T07:05:29;96783.41;;;0.80;92.70
19795;BME280;10057;59.402;17.866;2023-12-22T07:07:51;96784.34;;;0.79;92.89
19795;BME280;10057;59.402;17.866;2023-12-22T07:10:18;96799.13;;;0.78;92.93
19795;BME280;10057;59.402;17.866;2023-12-22T07:12:44;96794.69;;;0.80;92.81
19795;BME280;10057;59.402;17.866;2023-12-22T07:15:11;96787.03;;;0.77;93.03
19795;BME280;10057;59.402;17.866;2023-12-22T07:17:38;96793.91;;;0.78;92.59
19795;BME280;10057;59.402;17.866;2023-12-22T07:20:05;96801.66;;;0.80;92.50
19795;BME280;10057;59.402;17.866;2023-12-22T07:22:32;96799.13;;;0.78;92.50
19795;BME280;10057;59.402;17.866;2023-12-22T07:24:59;96812.94;;;0.80;93.06
19795;BME280;10057;59.402;17.866;2023-12-22T07:27:26;96815.53;;;0.80;92.70
19795;BME280;10057;59.402;17.866;2023-12-22T07:29:54;96818.16;;;0.80;92.94
19795;BME280;10057;59.402;17.866;2023-12-22T07:32:20;96815.53;;;0.80;92.98
19795;BME280;10057;59.402;17.866;2023-12-22T07:34:47;96823.38;;;0.80;92.82
19795;BME280;10057;59.402;17.866;2023-12-22T07:37:14;96824.38;;;0.78;92.89
19795;BME280;10057;59.402;17.866;2023-12-22T07:39:40;96837.25;;;0.81;92.90
19795;BME280;10057;59.402;17.866;2023-12-22T07:42:08;96829.41;;;0.81;92.83
19795;BME280;10057;59.402;17.866;2023-12-22T07:44:35;96834.56;;;0.82;92.89
19795;BME280;10057;59.402;17.866;2023-12-22T07:47:01;96834.56;;;0.82;92.52
19795;BME280;10057;59.402;17.866;2023-12-22T07:49:29;96825.63;;;0.86;92.92
19795;BME280;10057;59.402;17.866;2023-12-22T07:51:57;96845.19;;;0.93;92.71
19795;BME280;10057;59.402;17.866;2023-12-22T07:54:24;96844.25;;;0.94;92.12
19795;BME280;10057;59.402;17.866;2023-12-22T07:56:52;96838.31;;;0.92;92.36
19795;BME280;10057;59.402;17.866;2023-12-22T07:59:19;96846.03;;;0.94;92.25
19795;BME280;10057;59.402;17.866;2023-12-22T08:01:56;96853.97;;;0.92;92.33
19795;BME280;10057;59.402;17.866;2023-12-22T08:04:23;96856.66;;;0.91;92.35
19795;BME280;10057;59.402;17.866;2023-12-22T08:06:50;96851.53;;;0.89;92.45
19795;BME280;10057;59.402;17.866;2023-12-22T08:09:18;96856.75;;;0.89;92.54
19795;BME280;10057;59.402;17.866;2023-12-22T08:11:45;96871.66;;;0.87;92.41
19795;BME280;10057;59.402;17.866;2023-12-22T08:14:13;96878.53;;;0.88;92.20
19795;BME280;10057;59.402;17.866;2023-12-22T08:16:40;96861.22;;;0.87;92.91
19795;BME280;10057;59.402;17.866;2023-12-22T08:19:07;96878.53;;;0.88;92.51
19795;BME280;10057;59.402;17.866;2023-12-22T08:21:34;96881.13;;;0.88;92.93
19795;BME280;10057;59.402;17.866;2023-12-22T08:24:11;96888.97;;;0.88;92.82
19795;BME280;10057;59.402;17.866;2023-12-22T08:26:48;96883.03;;;0.86;92.57
19795;BME280;10057;59.402;17.866;2023-12-22T08:29:16;96886.47;;;0.87;92.60
19795;BME280;10057;59.402;17.866;2023-12-22T08:31:43;96881.31;;;0.85;92.60
19795;BME280;10057;59.402;17.866;2023-12-22T08:34:12;96887.47;;;0.84;92.69
19795;BME280;10057;59.402;17.866;2023-12-22T08:36:39;96877.88;;;0.85;92.62
19795;BME280;10057;59.402;17.866;2023-12-22T08:39:06;96891.69;;;0.87;92.71
19795;BME280;10057;59.402;17.866;2023-12-22T08:41:35;96879.56;;;0.86;92.63
19795;BME280;10057;59.402;17.866;2023-12-22T08:44:05;96892.53;;;0.87;92.87
19795;BME280;10057;59.402;17.866;2023-12-22T08:46:32;96889.06;;;0.87;92.87
19795;BME280;10057;59.402;17.866;2023-12-22T08:48:59;96894.19;;;0.88;92.96
19795;BME280;10057;59.402;17.866;2023-12-22T08:51:27;96904.63;;;0.88;92.49
19795;BME280;10057;59.402;17.866;2023-12-22T08:53:54;96894.19;;;0.88;92.42
19795;BME280;10057;59.402;17.866;2023-12-22T08:56:22;96898.50;;;0.89;92.94
19795;BME280;10057;59.402;17.866;2023-12-22T08:58:51;96905.66;;;0.86;92.71
19795;BME280;10057;59.402;17.866;2023-12-22T09:01:18;96901.28;;;0.86;92.56
19795;BME280;10057;59.402;17.866;2023-12-22T09:03:46;96898.69;;;0.86;92.71
19795;BME280;10057;59.402;17.866;2023-12-22T09:06:24;96900.44;;;0.86;93.03
19795;BME280;10057;59.402;17.866;2023-12-22T09:08:51;96903.91;;;0.86;92.91
19795;BME280;10057;59.402;17.866;2023-12-22T09:11:20;96890.84;;;0.86;92.91
19795;BME280;10057;59.402;17.866;2023-12-22T09:13:47;96897.75;;;0.87;92.60
19795;BME280;10057;59.402;17.866;2023-12-22T09:16:20;96897.63;;;0.89;92.58
19795;BME280;10057;59.402;17.866;2023-12-22T09:18:47;96904.63;;;0.88;92.56
19795;BME280;10057;59.402;17.866;2023-12-22T09:21:14;96894.94;;;0.90;92.71
19795;BME280;10057;59.402;17.866;2023-12-22T09:23:41;96886.28;;;0.90;92.84
19795;BME280;10057;59.402;17.866;2023-12-22T09:26:11;96893.19;;;0.91;92.56
19795;BME280;10057;59.402;17.866;2023-12-22T09:28:37;96901.84;;;0.91;92.58
19795;BME280;10057;59.402;17.866;2023-12-22T09:31:04;96896.53;;;0.93;92.83
19795;BME280;10057;59.402;17.866;2023-12-22T09:33:32;96899.22;;;0.91;92.67
19795;BME280;10057;59.402;17.866;2023-12-22T09:35:59;96898.31;;;0.92;92.83
19795;BME280;10057;59.402;17.866;2023-12-22T09:38:26;96893.94;;;0.93;92.45
19795;BME280;10057;59.402;17.866;2023-12-22T09:40:54;96894.78;;;0.93;92.70
19795;BME280;10057;59.402;17.866;2023-12-22T09:43:20;96894.84;;;0.92;92.74
19795;BME280;10057;59.402;17.866;2023-12-22T09:45:49;96894.00;;;0.91;92.70
19795;BME280;10057;59.402;17.866;2023-12-22T09:48:20;96897.56;;;0.90;92.82
19795;BME280;10057;59.402;17.866;2023-12-22T09:50:54;96893.94;;;0.93;92.42
19795;BME280;10057;59.402;17.866;2023-12-22T09:53:21;96911.53;;;0.89;92.50
19795;BME280;10057;59.402;17.866;2023-12-22T09:55:49;96903.72;;;0.89;92.51
19795;BME280;10057;59.402;17.866;2023-12-22T09:58:16;96908.94;;;0.89;92.72
19795;BME280;10057;59.402;17.866;2023-12-22T10:00:43;96907.25;;;0.88;92.50
19795;BME280;10057;59.402;17.866;2023-12-22T10:03:11;96902.78;;;0.90;92.65
19795;BME280;10057;59.402;17.866;2023-12-22T10:05:42;96902.78;;;0.90;92.72
19795;BME280;10057;59.402;17.866;2023-12-22T10:08:09;96900.16;;;0.90;92.70
19795;BME280;10057;59.402;17.866;2023-12-22T10:10:39;96894.00;;;0.91;92.84
19795;BME280;10057;59.402;17.866;2023-12-22T10:13:12;96916.66;;;0.91;92.62
19795;BME280;10057;59.402;17.866;2023-12-22T10:15:40;96910.78;;;0.87;92.77
19795;BME280;10057;59.402;17.866;2023-12-22T10:18:10;96911.72;;;0.86;92.79
19795;BME280;10057;59.402;17.866;2023-12-22T10:20:37;96908.34;;;0.84;92.56
19795;BME280;10057;59.402;17.866;2023-12-22T10:23:03;96910.97;;;0.84;92.74
19795;BME280;10057;59.402;17.866;2023-12-22T10:25:30;96915.34;;;0.84;92.58
19795;BME280;10057;59.402;17.866;2023-12-22T10:27:58;96910.22;;;0.82;92.82
19795;BME280;10057;59.402;17.866;2023-12-22T10:30:25;96905.91;;;0.81;92.92
19795;BME280;10057;59.402;17.866;2023-12-22T10:32:52;96910.31;;;0.81;92.69
19795;BME280;10057;59.402;17.866;2023-12-22T10:35:22;96920.75;;;0.81;92.67
19795;BME280;10057;59.402;17.866;2023-12-22T10:37:49;96907.69;;;0.81;92.65
19795;BME280;10057;59.402;17.866;2023-12-22T10:40:20;96911.31;;;0.78;92.57
19795;BME280;10057;59.402;17.866;2023-12-22T10:42:48;96919.13;;;0.78;93.00
19795;BME280;10057;59.402;17.866;2023-12-22T10:45:18;96913.00;;;0.79;92.81
19795;BME280;10057;59.402;17.866;2023-12-22T10:47:44;96903.50;;;0.78;92.94
19795;BME280;10057;59.402;17.866;2023-12-22T10:50:12;96907.97;;;0.76;92.57
19795;BME280;10057;59.402;17.866;2023-12-22T10:52:40;96924.47;;;0.77;92.79
19795;BME280;10057;59.402;17.866;2023-12-22T10:55:08;96918.41;;;0.76;92.54
19795;BME280;10057;59.402;17.866;2023-12-22T10:57:34;96914.84;;;0.77;92.80
19795;BME280;10057;59.402;17.866;2023-12-22T11:00:05;96920.06;;;0.77;92.74
19795;BME280;10057;59.402;17.866;2023-12-22T11:02:34;96923.69;;;0.75;92.85
19795;BME280;10057;59.402;17.866;2023-12-22T11:05:04;96922.78;;;0.76;92.92
19795;BME280;10057;59.402;17.866;2023-12-22T11:07:36;96917.56;;;0.76;92.88
19795;BME280;10057;59.402;17.866;2023-12-22T11:10:07;96910.75;;;0.73;92.80
19795;BME280;10057;59.402;17.866;2023-12-22T11:12:38;96914.31;;;0.72;92.79
19795;BME280;10057;59.402;17.866;2023-12-22T11:15:05;96915.13;;;0.73;92.88
19795;BME280;10057;59.402;17.866;2023-12-22T11:17:37;96916.81;;;0.74;92.74
19795;BME280;10057;59.402;17.866;2023-12-22T11:20:13;96916.91;;;0.72;93.10
19795;BME280;10057;59.402;17.866;2023-12-22T11:22:42;96911.78;;;0.70;92.91
19795;BME280;10057;59.402;17.866;2023-12-22T11:25:09;96898.66;;;0.72;92.92
19795;BME280;10057;59.402;17.866;2023-12-22T11:27:42;96912.59;;;0.71;92.85
19795;BME280;10057;59.402;17.866;2023-12-22T11:30:11;96903.00;;;0.71;92.79
19795;BME280;10057;59.402;17.866;2023-12-22T11:32:39;96893.59;;;0.69;92.54
19795;BME280;10057;59.402;17.866;2023-12-22T11:35:07;96897.88;;;0.70;92.96
19795;BME280;10057;59.402;17.866;2023-12-22T11:37:35;96895.28;;;0.70;92.81
19795;BME280;10057;59.402;17.866;2023-12-22T11:40:02;96901.34;;;0.70;92.99
19795;BME280;10057;59.402;17.866;2023-12-22T11:42:31;96902.94;;;0.73;92.81
19795;BME280;10057;59.402;17.866;2023-12-22T11:45:00;96903.00;;;0.71;92.76
19795;BME280;10057;59.402;17.866;2023-12-22T11:47:27;96901.44;;;0.69;92.98
19795;BME280;10057;59.402;17.866;2023-12-22T11:49:55;96893.59;;;0.69;92.79
19795;BME280;10057;59.402;17.866;2023-12-22T11:52:26;96902.16;;;0.71;92.71
19795;BME280;10057;59.402;17.866;2023-12-22T11:54:55;96910.81;;;0.71;92.80
19795;BME280;10057;59.402;17.866;2023-12-22T11:59:56;96895.28;;;0.70;92.78
19795;BME280;10057;59.402;17.866;2023-12-22T12:02:23;96917.81;;;0.71;92.85
19795;BME280;10057;59.402;17.866;2023-12-22T12:04:53;96906.47;;;0.72;92.97
19795;BME280;10057;59.402;17.866;2023-12-22T12:07:40;96911.78;;;0.70;92.64
19795;BME280;10057;59.402;17.866;2023-12-22T12:10:07;96916.16;;;0.70;92.55
19795;BME280;10057;59.402;17.866;2023-12-22T12:12:35;96914.47;;;0.69;92.90
19795;BME280;10057;59.402;17.866;2023-12-22T12:15:11;96909.34;;;0.67;93.05
19795;BME280;10057;59.402;17.866;2023-12-22T12:17:40;96899.72;;;0.68;92.96
19795;BME280;10057;59.402;17.866;2023-12-22T12:20:08;96902.34;;;0.68;93.11
19795;BME280;10057;59.402;17.866;2023-12-22T12:22:37;96902.34;;;0.68;92.93
19795;BME280;10057;59.402;17.866;2023-12-22T12:25:10;96902.53;;;0.65;92.76
19795;BME280;10057;59.402;17.866;2023-12-22T12:28:04;96912.94;;;0.65;92.82
19795;BME280;10057;59.402;17.866;2023-12-22T12:30:32;96913.81;;;0.65;92.98
19795;BME280;10057;59.402;17.866;2023-12-22T12:33:06;96924.41;;;0.62;92.96
19795;BME280;10057;59.402;17.866;2023-12-22T12:35:34;96905.34;;;0.62;92.92
19795;BME280;10057;59.402;17.866;2023-12-22T12:38:05;96919.28;;;0.61;92.75
19795;BME280;10057;59.402;17.866;2023-12-22T12:40:33;96915.00;;;0.60;92.88
19795;BME280;10057;59.402;17.866;2023-12-22T12:43:02;96928.03;;;0.60;92.91
19795;BME280;10057;59.402;17.866;2023-12-22T12:45:29;96919.22;;;0.62;92.77
19795;BME280;10057;59.402;17.866;2023-12-22T12:48:00;96925.25;;;0.63;92.97
19795;BME280;10057;59.402;17.866;2023-12-22T12:50:29;96925.25;;;0.63;93.08
19795;BME280;10057;59.402;17.866;2023-12-22T12:52:59;96926.94;;;0.64;93.21
19795;BME280;10057;59.402;17.866;2023-12-22T12:55:26;96934.75;;;0.64;93.07
19795;BME280;10057;59.402;17.866;2023-12-22T12:57:55;96933.09;;;0.63;92.90
19795;BME280;10057;59.402;17.866;2023-12-22T13:00:26;96932.16;;;0.64;92.79
19795;BME280;10057;59.402;17.866;2023-12-22T13:02:57;96932.16;;;0.64;92.98
19795;BME280;10057;59.402;17.866;2023-12-22T13:05:26;96932.25;;;0.62;93.10
19795;BME280;10057;59.402;17.866;2023-12-22T13:08:06;96938.31;;;0.63;92.73
19795;BME280;10057;59.402;17.866;2023-12-22T13:10:33;96931.47;;;0.60;92.93